Time;durP1;ratioP1;P1;durP2;ratioP2;P2;SDS_P1;SDS_P2;PMS_P1;PMS_P2;Temp;Humidity;BMP_temperature;BMP_pressure;BME280_temperature;BME280_humidity;BME280_pressure;Samples;Min_cycle;Max_cycle;Signal;HPM_P1;HPM_P2
2022/10/15 00:02:27;;;;;;;5.10;4.70;;;13.90;99.90;;;14.24;92.79;97342.50;5132181;27;20455;-76
2022/10/15 00:04:54;;;;;;;6.00;5.40;;;13.90;99.90;;;14.11;92.75;97335.59;5130732;27;20461;-77
2022/10/15 00:07:21;;;;;;;4.97;4.57;;;13.90;99.90;;;14.31;92.24;97340.41;5130694;27;20663;-76
2022/10/15 00:09:49;;;;;;;6.50;5.40;;;14.00;99.90;;;14.26;92.31;97333.03;5110905;27;20529;-77
2022/10/15 00:12:17;;;;;;;6.97;5.30;;;14.00;99.90;;;14.19;93.03;97331.59;5133258;27;20462;-76
2022/10/15 00:14:44;;;;;;;6.23;5.73;;;13.90;99.90;;;14.16;92.97;97317.44;5120952;27;20469;-75
2022/10/15 00:17:12;;;;;;;6.80;5.63;;;13.90;99.90;;;14.29;92.56;97320.81;5148854;27;20437;-76
2022/10/15 00:19:39;;;;;;;6.70;5.70;;;13.90;99.90;;;14.41;91.69;97324.19;5130696;27;20612;-76
2022/10/15 00:22:06;;;;;;;5.53;5.13;;;14.00;99.90;;;14.44;91.69;97326.41;5122652;27;21030;-76
2022/10/15 00:24:33;;;;;;;5.77;4.50;;;14.00;99.90;;;14.42;91.37;97320.41;5128638;27;20556;-74
2022/10/15 00:27:01;;;;;;;6.20;5.30;;;14.00;99.90;;;14.44;91.62;97318.25;5136850;27;20520;-75
2022/10/15 00:29:29;;;;;;;5.13;4.73;;;14.00;99.90;;;14.34;91.73;97320.06;5124426;27;20915;-75
2022/10/15 00:31:56;;;;;;;6.17;4.87;;;14.00;99.90;;;14.36;91.93;97307.84;5125567;27;20454;-75
2022/10/15 00:34:24;;;;;;;5.43;4.97;;;14.00;99.90;;;14.27;91.91;97318.38;5109346;28;20477;-77
2022/10/15 00:36:51;;;;;;;8.20;4.73;;;14.00;99.90;;;14.30;92.74;97308.88;5140128;27;20437;-74
2022/10/15 00:39:19;;;;;;;5.17;4.67;;;14.00;99.90;;;14.34;92.68;97306.47;5135762;27;20479;-76
2022/10/15 00:41:46;;;;;;;5.77;5.30;;;14.00;99.90;;;14.32;92.21;97306.72;5116603;28;20564;-75
2022/10/15 00:44:53;;;;;;;4.90;4.50;;;14.00;99.90;;;14.34;91.78;97295.59;5130750;27;20501;-76
2022/10/15 00:47:28;;;;;;;5.83;5.23;;;14.00;99.90;;;14.29;92.53;97301.78;5150341;27;20452;-76
2022/10/15 00:50:04;;;;;;;5.00;4.60;;;14.00;99.90;;;14.18;92.97;97295.44;5132686;27;20981;-76
2022/10/15 00:52:40;;;;;;;5.23;4.73;;;13.90;99.90;;;14.35;92.31;97298.06;5137437;27;20464;-76
2022/10/15 00:55:13;;;;;;;5.37;4.97;;;14.00;99.90;;;14.27;92.75;97268.63;5123959;27;20473;-76
2022/10/15 00:57:41;;;;;;;4.93;4.53;;;14.00;99.90;;;14.42;92.31;97279.66;5130253;27;20466;-76
2022/10/15 01:00:15;;;;;;;5.03;4.20;;;14.00;99.90;;;14.23;93.00;97278.38;5121380;27;20503;-77
2022/10/15 01:02:42;;;;;;;5.20;4.70;;;14.00;99.90;;;14.30;93.40;97282.53;5123796;27;20540;-76
2022/10/15 01:05:11;;;;;;;5.00;4.47;;;14.00;99.90;;;14.32;93.29;97268.66;5118944;27;20495;-76
2022/10/15 01:07:38;;;;;;;5.40;4.90;;;14.00;99.90;;;14.19;93.74;97260.97;5135832;27;20474;-76
2022/10/15 01:10:07;;;;;;;5.23;4.73;;;14.00;99.90;;;14.22;93.58;97265.88;5108525;28;20453;-76
2022/10/15 01:12:52;;;;;;;5.20;4.70;;;14.00;99.90;;;14.20;93.73;97274.28;5115325;27;20457;-75
2022/10/15 01:15:26;;;;;;;6.00;5.40;;;13.90;99.90;;;14.23;93.92;97262.09;5126460;27;20472;-75
2022/10/15 01:17:59;;;;;;;5.63;4.90;;;13.90;99.90;;;14.36;93.08;97261.66;5140339;27;20462;-76
2022/10/15 01:21:00;;;;;;;6.07;4.43;;;14.00;99.90;;;14.35;93.35;97253.75;5122785;27;20510;-75
2022/10/15 01:24:20;;;;;;;5.10;4.70;;;14.00;99.90;;;14.31;93.47;97254.28;5108509;28;20514;-77
2022/10/15 01:27:28;;;;;;;5.07;4.57;;;14.00;99.90;;;14.30;93.46;97243.66;5134316;27;20449;-76
2022/10/15 01:30:16;;;;;;;5.93;4.40;;;14.00;99.90;;;14.17;93.58;97237.56;5124760;27;20893;-76
2022/10/15 01:32:53;;;;;;;7.40;4.10;;;14.00;99.90;;;14.38;93.58;97251.34;5133520;27;21104;-76
2022/10/15 01:35:35;;;;;;;4.67;4.27;;;14.00;99.90;;;14.31;93.50;97246.13;5127059;27;20471;-77
2022/10/15 01:38:10;;;;;;;4.93;4.50;;;14.00;99.90;;;14.28;94.07;97243.09;5113450;27;20456;-74
2022/10/15 01:40:46;;;;;;;5.23;4.30;;;14.00;99.90;;;14.19;94.84;97244.66;5113090;28;20445;-76
2022/10/15 01:43:21;;;;;;;5.07;4.67;;;13.90;99.90;;;14.36;93.96;97245.38;5111246;28;20478;-78
2022/10/15 01:45:56;;;;;;;4.00;3.70;;;13.90;99.90;;;14.40;93.63;97245.63;5111138;28;20961;-75
2022/10/15 01:48:28;;;;;;;4.60;4.20;;;14.00;99.90;;;14.21;94.17;97226.22;5137382;27;20465;-75
2022/10/15 01:51:00;;;;;;;4.63;4.23;;;14.00;99.90;;;14.09;95.29;97221.75;5135669;27;20454;-76
2022/10/15 01:53:29;;;;;;;5.10;4.57;;;14.00;99.90;;;14.29;94.13;97231.16;5127954;27;20460;-75
2022/10/15 01:56:00;;;;;;;6.10;4.20;;;14.00;99.90;;;14.37;93.96;97230.69;5128224;27;20477;-76
2022/10/15 01:58:29;;;;;;;5.90;4.30;;;14.00;99.90;;;14.41;93.86;97222.84;5123252;27;20484;-76
2022/10/15 02:00:58;;;;;;;8.20;4.43;;;14.00;99.90;;;14.28;94.57;97215.94;5126988;27;20454;-76
2022/10/15 02:03:25;;;;;;;4.30;3.90;;;14.00;99.90;;;14.24;94.45;97220.25;5120198;27;20451;-75
2022/10/15 02:05:59;;;;;;;4.60;4.20;;;14.00;99.90;;;14.22;95.27;97222.41;5127283;27;20457;-75
2022/10/15 02:08:39;;;;;;;4.13;3.70;;;13.90;99.90;;;14.11;94.21;97173.44;5121490;27;20885;-76
2022/10/15 02:11:12;;;;;;;3.80;3.50;;;14.00;99.90;;;14.26;94.66;97220.81;5106995;28;20462;-75
2022/10/15 02:13:51;;;;;;;4.50;3.50;;;14.00;99.90;;;14.18;95.67;97222.09;5114836;27;20450;-75
2022/10/15 02:16:27;;;;;;;3.70;3.40;;;13.90;99.90;;;14.40;94.91;97210.31;5111001;27;20446;-75
2022/10/15 02:19:02;;;;;;;4.30;3.90;;;14.00;99.90;;;14.21;95.87;97212.63;5115966;27;21028;-76
2022/10/15 02:21:36;;;;;;;5.80;3.70;;;13.90;99.90;;;14.11;96.49;97216.88;5122610;27;20460;-75
2022/10/15 02:24:10;;;;;;;5.03;3.53;;;13.90;99.90;;;14.15;95.89;97207.13;5113870;27;20493;-76
2022/10/15 02:26:39;;;;;;;3.57;3.23;;;13.90;99.90;;;14.20;96.66;97211.00;5126953;27;20971;-77
2022/10/15 02:29:11;;;;;;;3.73;3.43;;;13.90;99.90;;;14.20;96.35;97208.28;5132886;27;20463;-75
2022/10/15 02:31:44;;;;;;;4.03;3.67;;;13.90;99.90;;;14.19;96.01;97193.88;5126676;27;20865;-75
2022/10/15 02:34:15;;;;;;;4.70;3.80;;;13.90;99.90;;;14.13;96.54;97209.28;5110629;28;20496;-75
2022/10/15 02:36:43;;;;;;;3.70;3.40;;;13.90;99.90;;;13.92;97.29;97181.13;5107825;28;20817;-74
2022/10/15 02:39:14;;;;;;;4.50;4.10;;;13.80;99.90;;;14.25;96.19;97211.03;5107018;28;20454;-76
2022/10/15 02:41:43;;;;;;;3.47;3.27;;;13.90;99.90;;;14.16;95.57;97159.06;5121020;27;20468;-75
2022/10/15 02:44:10;;;;;;;5.60;3.47;;;13.90;99.90;;;14.17;96.02;97199.53;5114255;27;20516;-75
2022/10/15 02:46:38;;;;;;;3.17;2.87;;;13.90;99.90;;;14.24;95.59;97193.91;5127288;28;20561;-75
2022/10/15 02:49:06;;;;;;;3.70;3.40;;;13.90;99.90;;;14.24;95.34;97183.03;5133444;27;20456;-75
2022/10/15 02:51:35;;;;;;;4.73;3.20;;;13.90;99.90;;;14.33;95.81;97188.84;5120405;28;20469;-75
2022/10/15 02:54:05;;;;;;;3.70;3.40;;;13.90;99.90;;;14.07;95.25;97145.16;5127024;28;20514;-75
2022/10/15 02:56:33;;;;;;;2.70;2.50;;;14.00;99.90;;;14.22;95.71;97173.53;5129029;28;20470;-74
2022/10/15 02:59:01;;;;;;;4.60;2.67;;;14.00;99.90;;;14.49;94.69;97184.31;5120613;27;20454;-75
2022/10/15 03:01:28;;;;;;;2.60;2.40;;;14.00;99.90;;;14.40;94.89;97185.84;5127521;28;20460;-74
2022/10/15 03:03:55;;;;;;;3.07;2.70;;;14.00;99.90;;;14.34;95.44;97186.91;5127368;28;20545;-76
2022/10/15 03:06:24;;;;;;;5.00;2.63;;;14.00;99.90;;;14.29;95.32;97182.25;5128355;27;20499;-76
2022/10/15 03:08:51;;;;;;;2.70;2.50;;;14.00;99.90;;;14.31;95.24;97171.94;5128641;27;20482;-75
2022/10/15 03:11:18;;;;;;;4.40;3.00;;;14.00;99.90;;;14.29;95.76;97174.09;5108158;28;20528;-76
2022/10/15 03:13:45;;;;;;;3.70;3.40;;;14.00;99.90;;;14.37;94.87;97173.63;5122891;28;20460;-76
2022/10/15 03:16:12;;;;;;;5.90;3.70;;;14.00;99.90;;;14.42;94.53;97184.53;5131123;28;20473;-77
2022/10/15 03:18:39;;;;;;;3.97;3.63;;;14.00;99.90;;;14.30;94.34;97159.44;5133722;27;20482;-75
2022/10/15 03:21:07;;;;;;;4.23;3.83;;;14.10;99.90;;;14.53;94.09;97174.53;5119018;28;20461;-75
2022/10/15 03:23:35;;;;;;;3.30;3.00;;;14.10;99.90;;;14.22;94.92;97159.94;5127747;27;20619;-76
2022/10/15 03:26:03;;;;;;;3.43;2.60;;;14.00;99.90;;;14.19;96.15;97171.31;5125806;27;20517;-76
2022/10/15 03:28:30;;;;;;;2.60;2.40;;;14.00;99.90;;;14.22;96.43;97166.16;5122332;28;21112;-77
2022/10/15 03:30:57;;;;;;;4.90;2.20;;;13.90;99.90;;;14.17;96.18;97161.50;5122578;28;20450;-75
2022/10/15 03:33:24;;;;;;;1.90;1.80;;;13.90;99.90;;;14.23;96.39;97162.38;5113156;28;20500;-75
2022/10/15 03:35:52;;;;;;;2.20;2.03;;;13.90;99.90;;;14.28;95.89;97170.59;5107498;28;21097;-77
2022/10/15 03:38:20;;;;;;;2.83;2.30;;;14.00;99.90;;;14.26;95.82;97164.59;5125023;27;20460;-77
2022/10/15 03:40:48;;;;;;;2.10;1.93;;;14.00;99.90;;;14.22;96.32;97162.66;5106269;28;20461;-75
2022/10/15 03:43:15;;;;;;;1.60;1.50;;;14.00;99.90;;;14.24;96.07;97157.78;5121693;28;20466;-75
2022/10/15 03:45:43;;;;;;;2.17;2.00;;;14.00;99.90;;;14.40;95.74;97164.97;5132402;27;20977;-76
2022/10/15 03:48:10;;;;;;;2.77;2.00;;;14.00;99.90;;;14.19;96.29;97168.63;5116086;28;20446;-75
2022/10/15 03:50:37;;;;;;;2.70;2.20;;;13.90;99.90;;;14.31;95.75;97170.06;5121434;28;20505;-77
2022/10/15 03:53:06;;;;;;;2.90;1.83;;;14.00;99.90;;;13.80;96.64;97124.28;5129778;27;20456;-77
2022/10/15 03:55:33;;;;;;;1.87;1.77;;;13.90;99.90;;;14.13;96.56;97165.84;5127864;27;20926;-77
2022/10/15 03:58:01;;;;;;;2.17;1.97;;;13.90;99.90;;;14.19;96.47;97174.03;5127933;27;20506;-75
2022/10/15 04:00:29;;;;;;;2.93;2.00;;;13.90;99.90;;;14.26;96.43;97174.63;5129892;27;20484;-76
2022/10/15 04:02:56;;;;;;;1.87;1.67;;;14.00;99.90;;;14.19;96.15;97168.63;5127808;27;21030;-75
2022/10/15 04:05:24;;;;;;;1.87;1.73;;;14.00;99.90;;;14.23;96.69;97169.72;5129388;27;20457;-76
2022/10/15 04:07:51;;;;;;;2.50;2.30;;;14.00;99.90;;;14.13;96.76;97176.69;5123956;27;20490;-76
2022/10/15 04:10:18;;;;;;;2.30;1.87;;;14.00;99.90;;;14.19;97.03;97168.63;5118311;27;20517;-75
2022/10/15 04:12:45;;;;;;;2.37;2.20;;;14.00;99.90;;;14.25;96.73;97168.38;5126914;27;20679;-76
2022/10/15 04:15:14;;;;;;;2.03;1.93;;;14.00;99.90;;;14.23;96.88;97170.53;5129422;27;20473;-75
2022/10/15 04:17:41;;;;;;;3.33;2.70;;;14.00;99.90;;;13.98;96.98;97147.53;5116910;27;21033;-76
2022/10/15 04:20:10;;;;;;;3.63;2.10;;;13.90;99.90;;;14.13;97.93;97168.56;5123881;27;20527;-76
2022/10/15 04:22:38;;;;;;;2.10;1.90;;;13.90;99.90;;;14.23;95.98;97156.13;5125785;27;20491;-74
2022/10/15 04:25:07;;;;;;;3.30;3.00;;;14.00;99.90;;;14.32;96.58;97179.00;5118632;27;20453;-76
2022/10/15 04:27:34;;;;;;;2.40;2.20;;;14.00;99.90;;;14.17;96.85;97175.09;5122711;27;20941;-75
2022/10/15 04:30:01;;;;;;;3.50;2.03;;;14.00;99.90;;;14.20;97.04;97171.06;5117073;27;21030;-75
2022/10/15 04:32:30;;;;;;;2.20;2.10;;;14.00;99.90;;;14.19;97.32;97171.31;5111332;27;20957;-76
2022/10/15 04:34:57;;;;;;;1.90;1.80;;;14.00;99.90;;;14.27;97.26;97178.97;5119829;27;20833;-76
2022/10/15 04:37:24;;;;;;;2.57;2.03;;;14.00;99.90;;;14.25;96.60;97165.66;5129582;27;20469;-76
2022/10/15 04:39:51;;;;;;;2.37;2.17;;;14.00;99.90;;;14.19;96.94;97179.47;5128662;27;20461;-75
2022/10/15 04:42:18;;;;;;;2.20;2.10;;;14.00;99.90;;;14.23;97.29;97183.31;5127643;27;20456;-76
2022/10/15 04:44:45;;;;;;;1.87;1.77;;;14.00;99.90;;;14.28;96.94;97180.63;5117967;27;20454;-76
2022/10/15 04:47:12;;;;;;;3.10;2.90;;;14.00;99.90;;;14.30;96.65;97175.75;5136323;27;20475;-76
2022/10/15 04:49:41;;;;;;;3.83;3.40;;;14.00;99.90;;;14.49;95.94;97189.75;5125422;27;20600;-76
2022/10/15 04:52:08;;;;;;;3.70;3.20;;;14.00;99.90;;;14.35;96.29;97177.69;5126339;27;20545;-76
2022/10/15 04:54:35;;;;;;;2.93;2.73;;;14.10;99.90;;;14.37;96.70;97179.06;5108455;28;20467;-76
2022/10/15 04:57:03;;;;;;;2.87;2.67;;;14.10;99.90;;;14.36;97.08;97182.88;5122074;27;20947;-76
2022/10/15 04:59:30;;;;;;;2.70;2.50;;;14.10;99.90;;;14.21;97.55;97182.75;5111926;27;20450;-76
2022/10/15 05:01:57;;;;;;;3.83;2.13;;;14.00;99.90;;;14.22;97.46;97192.53;5131093;27;20494;-76
2022/10/15 05:04:25;;;;;;;2.90;2.60;;;14.00;99.90;;;14.22;98.13;97179.75;5115992;27;20460;-77
2022/10/15 05:06:53;;;;;;;3.13;2.83;;;14.00;99.90;;;14.36;97.58;97182.03;5129325;27;20503;-76
2022/10/15 05:09:21;;;;;;;2.57;2.37;;;14.00;99.90;;;14.17;97.64;97172.38;5123011;27;20484;-77
2022/10/15 05:11:48;;;;;;;3.80;2.60;;;14.00;99.90;;;14.27;98.08;97181.69;5126069;27;20471;-76
2022/10/15 05:14:15;;;;;;;3.13;2.83;;;14.00;99.90;;;14.28;97.88;97181.44;5119891;27;20500;-78
2022/10/15 05:16:43;;;;;;;2.60;2.40;;;14.00;99.90;;;14.26;97.82;97188.22;5130166;27;20529;-76
2022/10/15 05:19:12;;;;;;;2.33;2.10;;;14.00;99.90;;;14.31;98.30;97183.63;5120568;27;20461;-76
2022/10/15 05:21:39;;;;;;;2.53;2.37;;;14.00;99.90;;;14.45;97.40;97191.34;5108979;27;20469;-75
2022/10/15 05:24:09;;;;;;;2.47;2.27;;;14.10;99.90;;;14.52;96.62;97188.41;5127026;27;20460;-77
2022/10/15 05:26:36;;;;;;;2.60;2.40;;;14.10;99.90;;;14.39;97.40;97195.94;5127322;27;21089;-77
2022/10/15 05:29:04;;;;;;;3.03;2.60;;;14.10;99.90;;;14.40;97.10;97194.84;5116400;27;20461;-76
2022/10/15 05:31:33;;;;;;;2.57;2.37;;;14.10;99.90;;;14.40;96.90;97194.00;5127898;27;20453;-77
2022/10/15 05:34:07;;;;;;;2.80;2.40;;;14.10;99.90;;;14.44;97.59;97206.81;5137083;27;21017;-77
2022/10/15 05:36:35;;;;;;;2.53;2.07;;;14.10;99.90;;;14.57;96.91;97210.19;5129629;27;20545;-78
2022/10/15 05:39:05;;;;;;;2.80;2.43;;;14.10;99.90;;;14.49;96.97;97207.97;5124193;27;20469;-76
2022/10/15 05:41:34;;;;;;;2.53;2.33;;;14.10;99.90;;;14.52;96.99;97207.44;5115123;27;20517;-77
2022/10/15 05:44:01;;;;;;;2.50;2.30;;;14.10;99.90;;;14.63;95.96;97211.84;5119562;27;20542;-77
2022/10/15 05:46:29;;;;;;;3.23;2.20;;;14.20;99.90;;;14.49;96.22;97210.69;5128647;27;20449;-76
2022/10/15 05:48:57;;;;;;;2.07;1.87;;;14.20;99.90;;;14.56;96.87;97222.97;5141070;27;20544;-75
2022/10/15 05:51:27;;;;;;;2.27;2.07;;;14.20;99.90;;;14.50;96.77;97223.19;5113791;27;20454;-77
2022/10/15 05:53:55;;;;;;;2.50;2.30;;;14.20;99.90;;;14.50;97.23;97224.00;5107414;27;20453;-76
2022/10/15 05:56:23;;;;;;;2.20;2.00;;;14.20;99.90;;;14.42;97.50;97219.84;5122940;27;20975;-75
2022/10/15 05:58:52;;;;;;;2.90;2.70;;;14.20;99.90;;;14.51;97.22;97222.91;5110233;27;20439;-75
2022/10/15 06:01:20;;;;;;;2.10;2.00;;;14.20;99.90;;;14.55;97.26;97231.38;5107040;28;20463;-77
2022/10/15 06:03:48;;;;;;;2.43;2.23;;;14.20;99.90;;;14.59;97.18;97235.19;5107508;27;20465;-76
2022/10/15 06:06:17;;;;;;;2.90;2.70;;;14.20;99.90;;;14.75;96.12;97230.72;5136319;27;20825;-74
2022/10/15 06:08:45;;;;;;;2.50;2.30;;;14.30;99.90;;;14.74;95.84;97220.94;5143347;27;20991;-75
2022/10/15 06:11:12;;;;;;;2.90;2.63;;;14.40;99.90;;;14.80;95.35;97233.47;5116205;27;21038;-78
2022/10/15 06:13:41;;;;;;;3.13;2.30;;;14.40;99.90;;;14.76;95.73;97229.66;5115224;27;20450;-78
2022/10/15 06:16:11;;;;;;;2.03;1.93;;;14.40;99.90;;;14.86;94.95;97226.16;5133391;27;20981;-76
2022/10/15 06:18:39;;;;;;;2.00;1.90;;;14.40;99.90;;;14.78;95.41;97238.34;5122250;27;20450;-77
2022/10/15 06:21:07;;;;;;;5.40;2.53;;;14.50;99.90;;;14.72;96.02;97232.06;5112985;27;20527;-78
2022/10/15 06:23:35;;;;;;;2.97;2.77;;;14.50;99.90;;;14.83;96.25;97249.25;5118940;27;20453;-77
2022/10/15 06:26:03;;;;;;;3.30;2.53;;;14.40;99.90;;;14.77;96.49;97250.31;5124358;27;20448;-77
2022/10/15 06:28:31;;;;;;;3.47;3.17;;;14.40;99.90;;;14.78;96.88;97251.94;5116436;27;20500;-75
2022/10/15 06:30:59;;;;;;;2.47;2.27;;;14.40;99.90;;;14.82;96.07;97253.06;5123484;27;20952;-77
2022/10/15 06:33:29;;;;;;;3.30;2.20;;;14.50;99.90;;;14.77;96.68;97254.91;5148063;27;20447;-77
2022/10/15 06:35:59;;;;;;;2.80;2.30;;;14.50;99.90;;;14.82;96.41;97260.41;5128301;27;20557;-76
2022/10/15 06:38:27;;;;;;;2.80;2.60;;;14.50;99.90;;;14.64;96.08;97218.13;5126433;27;20625;-77
2022/10/15 06:40:54;;;;;;;4.00;2.93;;;14.60;99.90;;;14.99;95.86;97269.22;5129996;27;20445;-76
2022/10/15 06:43:21;;;;;;;2.50;2.30;;;14.60;99.90;;;14.97;96.04;97276.84;5119264;27;20904;-77
2022/10/15 06:45:48;;;;;;;5.87;3.57;;;14.70;99.90;;;15.01;96.09;97275.22;5121987;27;20480;-76
2022/10/15 06:48:16;;;;;;;2.53;2.33;;;14.70;99.90;;;15.20;94.91;97290.28;5131261;27;20979;-77
2022/10/15 06:50:44;;;;;;;4.27;2.03;;;14.80;99.90;;;15.12;94.79;97288.88;5123040;27;20510;-76
2022/10/15 06:53:12;;;;;;;5.23;2.40;;;14.80;99.90;;;15.20;95.02;97285.66;5121824;28;20461;-77
2022/10/15 06:55:39;;;;;;;3.60;3.30;;;14.80;99.90;;;15.22;94.76;97288.94;5122963;28;20476;-76
2022/10/15 06:58:06;;;;;;;3.07;2.83;;;14.90;99.90;;;15.19;94.96;97286.75;5128717;27;20514;-76
2022/10/15 07:00:33;;;;;;;3.73;2.93;;;14.90;99.90;;;15.21;95.37;97303.63;5127345;27;21087;-77
2022/10/15 07:03:04;;;;;;;2.93;2.63;;;14.90;99.90;;;15.28;95.37;97296.06;5128277;27;20526;-76
2022/10/15 07:05:32;;;;;;;3.20;2.10;;;14.90;99.90;;;15.11;95.60;97289.97;5132867;27;20840;-77
2022/10/15 07:08:01;;;;;;;3.87;3.30;;;14.90;99.90;;;15.29;96.10;97319.47;5127325;27;20475;-78
2022/10/15 07:10:29;;;;;;;2.67;2.47;;;14.90;99.90;;;15.38;95.52;97308.91;5136740;27;20514;-76
2022/10/15 07:12:59;;;;;;;3.27;2.83;;;15.00;99.90;;;15.52;95.75;97313.88;5127878;27;20449;-77
2022/10/15 07:15:26;;;;;;;3.63;2.73;;;15.00;99.90;;;15.52;94.89;97316.59;5126480;27;20529;-77
2022/10/15 07:17:59;;;;;;;2.87;2.60;;;15.10;99.90;;;15.64;94.83;97321.81;5144012;27;20445;-75
2022/10/15 07:20:27;;;;;;;2.60;2.40;;;15.20;99.90;;;15.68;93.72;97312.00;5120862;28;20458;-76
2022/10/15 07:22:57;;;;;;;5.00;3.00;;;15.30;99.90;;;15.67;94.71;97316.66;5126607;27;20520;-77
2022/10/15 07:25:27;;;;;;;3.93;2.60;;;15.20;99.90;;;15.60;94.07;97320.72;5137901;27;20524;-77
2022/10/15 07:27:54;;;;;;;4.40;3.07;;;15.30;99.90;;;15.69;94.13;97322.66;5110262;27;20481;-77
2022/10/15 07:30:22;;;;;;;3.53;2.83;;;15.30;99.90;;;15.61;93.98;97327.78;5112902;27;20835;-76
2022/10/15 07:32:50;;;;;;;2.90;2.70;;;15.30;99.90;;;15.63;94.64;97328.34;5110203;28;20875;-77
2022/10/15 07:35:17;;;;;;;3.67;3.00;;;15.30;99.90;;;15.76;94.04;97325.13;5120145;27;21026;-76
2022/10/15 07:37:46;;;;;;;3.73;3.43;;;15.30;99.90;;;15.90;93.72;97336.38;5125395;27;20476;-75
2022/10/15 07:40:13;;;;;;;3.80;3.23;;;15.40;99.90;;;15.89;93.22;97332.00;5125426;27;20449;-76
2022/10/15 07:42:42;;;;;;;3.40;2.67;;;15.40;99.90;;;15.93;93.55;97340.47;5128429;27;20981;-76
2022/10/15 07:45:11;;;;;;;4.10;2.90;;;15.40;99.90;;;15.97;93.34;97341.56;5129394;27;20456;-76
2022/10/15 07:47:41;;;;;;;2.70;2.50;;;15.50;99.90;;;15.99;93.78;97339.41;5131803;27;20785;-75
2022/10/15 07:50:09;;;;;;;4.40;4.00;;;15.50;99.90;;;16.31;92.06;97345.75;5140905;27;20479;-76
2022/10/15 07:52:36;;;;;;;6.77;2.70;;;15.60;99.90;;;16.45;90.37;97344.16;5129274;27;20462;-75
2022/10/15 07:55:04;;;;;;;4.40;3.00;;;15.80;99.90;;;16.46;90.50;97347.72;5119239;27;20775;-75
2022/10/15 07:57:31;;;;;;;2.83;2.63;;;15.90;99.90;;;16.67;89.61;97354.81;5126849;27;20470;-76
2022/10/15 08:00:00;;;;;;;2.63;2.43;;;16.10;99.90;;;16.91;88.64;97362.47;5130186;27;21025;-77
2022/10/15 08:02:27;;;;;;;2.50;2.30;;;16.30;99.90;;;16.62;89.27;97362.16;5147029;27;20874;-76
2022/10/15 08:04:54;;;;;;;2.30;2.20;;;16.30;99.90;;;16.29;91.61;97367.81;5127889;27;20472;-76
2022/10/15 08:07:21;;;;;;;2.53;2.27;;;16.10;99.90;;;16.40;92.51;97372.22;5131223;27;20511;-77
2022/10/15 08:09:48;;;;;;;2.53;1.90;;;16.10;99.90;;;16.56;90.41;97381.25;5125662;27;20515;-76
2022/10/15 08:12:16;;;;;;;2.60;2.03;;;16.20;99.90;;;16.75;89.32;97377.16;5114619;27;20873;-76
2022/10/15 08:14:43;;;;;;;2.40;2.20;;;16.30;99.90;;;16.82;89.22;97384.00;5113087;27;20455;-77
2022/10/15 08:17:12;;;;;;;2.60;2.10;;;16.40;99.90;;;16.95;88.67;97381.81;5126155;27;20473;-76
2022/10/15 08:19:40;;;;;;;2.03;1.80;;;16.50;99.90;;;16.91;88.83;97383.47;5116393;27;20941;-76
2022/10/15 08:22:07;;;;;;;2.40;2.20;;;16.50;99.90;;;16.83;89.40;97384.81;5124843;27;20452;-77
2022/10/15 08:24:35;;;;;;;2.13;1.93;;;16.50;99.90;;;16.93;89.17;97393.03;5130802;27;20879;-78
2022/10/15 08:27:02;;;;;;;2.10;2.00;;;16.50;99.90;;;17.12;88.85;97392.50;5120840;27;20501;-76
2022/10/15 08:29:29;;;;;;;3.20;2.10;;;16.50;99.90;;;17.02;88.93;97403.41;5122513;27;20930;-76
2022/10/15 08:31:56;;;;;;;2.43;2.23;;;16.50;99.90;;;16.83;90.44;97390.28;5145045;27;20450;-75
2022/10/15 08:34:25;;;;;;;2.57;2.30;;;16.50;99.90;;;16.84;90.83;97402.84;5128469;27;20458;-76
2022/10/15 08:36:52;;;;;;;2.20;1.60;;;16.40;99.90;;;16.75;90.93;97407.16;5121706;27;20470;-77
2022/10/15 08:39:19;;;;;;;1.20;1.10;;;16.40;99.90;;;16.79;90.88;97411.81;5129941;27;20457;-76
2022/10/15 08:41:50;;;;;;;2.07;0.90;;;16.30;99.90;;;16.73;90.82;97412.09;5125304;27;20449;-76
2022/10/15 08:44:25;;;;;;;0.60;0.60;;;16.40;99.90;;;16.61;92.05;97418.63;5142095;27;20458;-75
2022/10/15 08:46:58;;;;;;;0.80;0.80;;;16.30;99.90;;;16.38;92.57;97423.47;5112298;27;20458;-76
2022/10/15 08:49:43;;;;;;;0.60;0.60;;;16.20;99.90;;;16.39;92.61;97430.56;5136975;27;21129;-76
2022/10/15 08:52:21;;;;;;;1.00;0.90;;;16.10;99.90;;;16.61;91.92;97432.25;5116840;27;20446;-76
2022/10/15 08:54:48;;;;;;;1.30;1.20;;;16.10;99.90;;;16.76;91.67;97436.13;5126282;27;20453;-76
2022/10/15 08:57:37;;;;;;;1.40;1.30;;;16.20;99.90;;;16.67;91.46;97436.63;5131453;27;20570;-75
2022/10/15 09:00:13;;;;;;;1.23;1.00;;;16.20;99.90;;;16.64;90.99;97420.81;5110235;27;20461;-76
2022/10/15 09:02:51;;;;;;;1.67;1.13;;;16.30;99.90;;;16.83;90.79;97444.84;5113204;27;20707;-78
2022/10/15 09:05:42;;;;;;;2.60;1.50;;;16.40;99.90;;;16.86;90.98;97438.84;5131384;27;20811;-76
2022/10/15 09:08:22;;;;;;;1.30;1.20;;;16.50;99.90;;;16.61;90.34;97385.91;5126888;27;20542;-75
2022/10/15 09:10:52;;;;;;;2.63;1.60;;;16.50;99.90;;;17.04;89.95;97439.44;5118495;27;20484;-76
2022/10/15 09:13:26;;;;;;;1.30;1.20;;;16.60;99.90;;;17.26;88.38;97445.47;5121702;27;20536;-76
2022/10/15 09:15:59;;;;;;;2.00;1.33;;;16.70;99.90;;;17.46;88.17;97438.34;5121778;27;20518;-76
2022/10/15 09:18:31;;;;;;;3.13;1.37;;;16.90;99.90;;;17.73;85.83;97450.88;5111148;27;20447;-75
2022/10/15 09:21:01;;;;;;;1.73;1.00;;;17.10;99.90;;;17.51;85.62;97451.97;5110351;27;20452;-75
2022/10/15 09:23:29;;;;;;;2.07;1.23;;;17.20;99.50;;;17.64;85.84;97457.97;5111352;27;20526;-75
2022/10/15 09:26:06;;;;;;;1.33;1.00;;;17.30;99.90;;;17.75;84.48;97448.69;5127748;27;20458;-75
2022/10/15 09:28:43;;;;;;;1.23;1.13;;;17.40;98.90;;;17.91;83.16;97457.66;5124942;27;20450;-76
2022/10/15 09:31:14;;;;;;;0.97;0.97;;;17.50;97.40;;;18.28;82.64;97455.66;5129622;27;20461;-77
2022/10/15 09:33:47;;;;;;;1.10;1.00;;;17.70;98.20;;;18.36;81.63;97455.06;5127248;27;20491;-76
2022/10/15 09:36:34;;;;;;;1.90;1.10;;;17.90;96.50;;;18.26;81.16;97457.84;5115023;27;21233;-75
2022/10/15 09:39:16;;;;;;;1.73;1.20;;;17.90;95.50;;;18.08;81.64;97457.38;5128012;27;20442;-76
2022/10/15 09:41:55;;;;;;;3.10;1.60;;;17.90;95.30;;;18.12;82.04;97450.25;5121616;27;20457;-77
2022/10/15 09:44:25;;;;;;;5.50;2.10;;;17.90;96.00;;;18.28;81.97;97463.88;5128299;27;20447;-77
2022/10/15 09:46:52;;;;;;;2.33;1.20;;;17.90;96.50;;;18.41;81.41;97476.91;5108595;28;20439;-76
2022/10/15 09:49:24;;;;;;;1.30;1.20;;;17.90;96.40;;;18.22;82.47;97473.19;5107315;28;20517;-76
2022/10/15 09:52:03;;;;;;;1.70;1.60;;;17.90;96.70;;;18.50;82.73;97479.09;5122855;27;20491;-76
2022/10/15 09:54:43;;;;;;;2.67;2.00;;;17.90;97.80;;;18.87;79.66;97487.94;5127220;27;20449;-78
2022/10/15 09:57:14;;;;;;;2.07;1.50;;;18.30;96.10;;;18.69;79.90;97463.66;5129773;27;20481;-77
2022/10/15 09:59:53;;;;;;;1.80;1.70;;;18.40;95.00;;;18.83;79.33;97477.56;5132420;27;20558;-76
2022/10/15 10:02:23;;;;;;;1.50;1.40;;;18.50;94.60;;;18.61;80.47;97491.63;5149463;27;20531;-77
2022/10/15 10:04:51;;;;;;;1.40;1.20;;;18.50;94.50;;;18.73;79.21;97487.72;5119099;27;20498;-76
2022/10/15 10:07:32;;;;;;;1.23;1.00;;;18.30;94.20;;;18.61;79.30;97486.16;5113742;27;20440;-78
2022/10/15 10:10:04;;;;;;;1.47;1.10;;;18.30;94.10;;;18.48;80.45;97487.56;5118332;27;20490;-78
2022/10/15 10:12:34;;;;;;;1.63;1.20;;;18.20;94.70;;;18.57;79.59;97487.78;5133030;27;20450;-77
2022/10/15 10:15:07;;;;;;;2.57;2.37;;;18.10;94.80;;;18.54;80.12;97496.56;5124811;27;20461;-76
2022/10/15 10:17:34;;;;;;;4.30;2.13;;;18.10;95.10;;;18.72;79.76;97500.59;5117308;27;20530;-76
2022/10/15 10:20:16;;;;;;;1.67;1.57;;;18.20;95.50;;;18.73;79.69;97498.66;5113138;27;20488;-75
2022/10/15 10:22:48;;;;;;;2.10;1.80;;;18.20;95.40;;;18.74;79.53;97505.78;5126450;27;21012;-79
2022/10/15 10:25:39;;;;;;;3.00;1.90;;;18.20;95.30;;;18.74;78.79;97500.31;5106972;28;20520;-77
2022/10/15 10:28:19;;;;;;;11.13;7.23;;;18.20;94.70;;;18.62;79.08;97504.19;5108831;28;20470;-75
2022/10/15 10:31:02;;;;;;;3.17;2.20;;;18.30;94.60;;;18.72;80.36;97502.50;5117601;27;20468;-77
2022/10/15 10:33:32;;;;;;;3.63;1.60;;;18.30;95.40;;;19.06;77.91;97507.28;5111882;27;20449;-76
2022/10/15 10:36:00;;;;;;;1.90;1.80;;;18.50;94.10;;;19.30;77.28;97509.28;5126410;27;20537;-76